sensor_id;sensor_type;location;lat;lon;timestamp;pressure;altitude;pressure_sealevel;temperature;humidity
74552;BME280;63025;55.472;38.432;2023-05-15T00:00:05;100978.84;;;7.55;73.92
74552;BME280;63025;55.472;38.432;2023-05-15T00:02:38;100984.34;;;7.53;73.46
74552;BME280;63025;55.472;38.432;2023-05-15T00:05:07;100985.03;;;7.47;73.48
74552;BME280;63025;55.472;38.432;2023-05-15T00:07:34;100986.50;;;7.50;73.89
74552;BME280;63025;55.472;38.432;2023-05-15T00:10:00;100987.84;;;7.54;73.87
74552;BME280;63025;55.472;38.432;2023-05-15T00:12:26;100988.53;;;7.56;73.43
74552;BME280;63025;55.472;38.432;2023-05-15T00:14:52;100984.34;;;7.53;73.13
74552;BME280;63025;55.472;38.432;2023-05-15T00:17:18;100994.88;;;7.47;73.05
74552;BME280;63025;55.472;38.432;2023-05-15T00:19:44;100985.66;;;7.41;73.21
74552;BME280;63025;55.472;38.432;2023-05-15T00:22:10;100984.34;;;7.37;72.90
74552;BME280;63025;55.472;38.432;2023-05-15T00:24:36;100993.16;;;7.29;73.05
74552;BME280;63025;55.472;38.432;2023-05-15T00:27:02;100992.00;;;7.24;73.01
74552;BME280;63025;55.472;38.432;2023-05-15T00:29:29;100991.81;;;7.17;72.58
74552;BME280;63025;55.472;38.432;2023-05-15T00:31:55;100994.16;;;7.12;72.57
74552;BME280;63025;55.472;38.432;2023-05-15T00:34:25;101000.50;;;7.11;72.74
74552;BME280;63025;55.472;38.432;2023-05-15T00:36:51;100999.63;;;7.03;72.07
74552;BME280;63025;55.472;38.432;2023-05-15T00:39:17;100995.44;;;7.00;72.45
74552;BME280;63025;55.472;38.432;2023-05-15T00:41:44;100998.44;;;6.97;73.23
74552;BME280;63025;55.472;38.432;2023-05-15T00:44:11;100995.13;;;6.95;72.98
74552;BME280;63025;55.472;38.432;2023-05-15T00:46:38;100992.91;;;6.90;73.19
74552;BME280;63025;55.472;38.432;2023-05-15T00:49:04;100994.41;;;6.85;73.23
74552;BME280;63025;55.472;38.432;2023-05-15T00:51:31;101000.91;;;6.82;73.21
74552;BME280;63025;55.472;38.432;2023-05-15T00:53:58;100997.03;;;6.77;73.06
74552;BME280;63025;55.472;38.432;2023-05-15T00:56:26;100993.88;;;6.73;73.19
74552;BME280;63025;55.472;38.432;2023-05-15T00:58:56;100994.03;;;6.72;73.53
74552;BME280;63025;55.472;38.432;2023-05-15T01:01:24;101004.19;;;6.68;73.58
74552;BME280;63025;55.472;38.432;2023-05-15T01:03:50;100999.00;;;6.67;73.58
74552;BME280;63025;55.472;38.432;2023-05-15T01:06:16;100995.66;;;6.64;73.75
74552;BME280;63025;55.472;38.432;2023-05-15T01:08:46;100994.47;;;6.59;73.73
74552;BME280;63025;55.472;38.432;2023-05-15T01:11:14;101001.94;;;6.55;73.81
74552;BME280;63025;55.472;38.432;2023-05-15T01:13:41;101005.28;;;6.49;73.91
74552;BME280;63025;55.472;38.432;2023-05-15T01:16:07;101004.91;;;6.44;73.79
74552;BME280;63025;55.472;38.432;2023-05-15T01:18:34;101001.03;;;6.39;73.83
74552;BME280;63025;55.472;38.432;2023-05-15T01:26:42;101001.50;;;6.34;73.82
74552;BME280;63025;55.472;38.432;2023-05-15T01:29:26;101000.66;;;6.34;74.04
74552;BME280;63025;55.472;38.432;2023-05-15T01:32:03;101002.00;;;6.30;73.82
74552;BME280;63025;55.472;38.432;2023-05-15T01:34:43;101004.66;;;6.30;73.97
74552;BME280;63025;55.472;38.432;2023-05-15T01:37:13;101001.47;;;6.26;73.89
74552;BME280;63025;55.472;38.432;2023-05-15T01:39:44;101005.81;;;6.27;73.76
74552;BME280;63025;55.472;38.432;2023-05-15T01:42:15;101008.03;;;6.32;73.89
74552;BME280;63025;55.472;38.432;2023-05-15T01:44:47;101004.19;;;6.34;74.09
74552;BME280;63025;55.472;38.432;2023-05-15T01:47:20;101011.88;;;6.37;73.74
74552;BME280;63025;55.472;38.432;2023-05-15T01:49:48;101002.03;;;6.38;73.87
74552;BME280;63025;55.472;38.432;2023-05-15T01:52:19;101011.25;;;6.43;74.10
74552;BME280;63025;55.472;38.432;2023-05-15T01:54:48;101002.22;;;6.44;73.91
74552;BME280;63025;55.472;38.432;2023-05-15T01:57:15;101006.56;;;6.45;74.22
74552;BME280;63025;55.472;38.432;2023-05-15T01:59:43;101008.47;;;6.53;74.30
74552;BME280;63025;55.472;38.432;2023-05-15T02:02:10;100997.28;;;6.57;74.03
74552;BME280;63025;55.472;38.432;2023-05-15T02:04:37;101006.00;;;6.59;73.73
74552;BME280;63025;55.472;38.432;2023-05-15T02:07:03;101010.53;;;6.67;73.89
74552;BME280;63025;55.472;38.432;2023-05-15T02:09:31;101010.38;;;6.69;73.82
74552;BME280;63025;55.472;38.432;2023-05-15T02:12:01;101003.88;;;6.71;73.95
74552;BME280;63025;55.472;38.432;2023-05-15T02:14:30;101017.94;;;6.81;73.98
74552;BME280;63025;55.472;38.432;2023-05-15T02:16:56;101011.09;;;6.87;74.15
74552;BME280;63025;55.472;38.432;2023-05-15T02:19:23;101012.16;;;6.94;73.85
74552;BME280;63025;55.472;38.432;2023-05-15T02:21:49;101024.41;;;7.13;73.96
74552;BME280;63025;55.472;38.432;2023-05-15T02:24:15;101025.41;;;7.20;73.93
74552;BME280;63025;55.472;38.432;2023-05-15T02:37:27;101032.66;;;7.84;73.38
74552;BME280;63025;55.472;38.432;2023-05-15T02:39:56;101027.81;;;7.96;72.92
74552;BME280;63025;55.472;38.432;2023-05-15T02:42:28;101025.28;;;8.10;72.54
74552;BME280;63025;55.472;38.432;2023-05-15T02:44:54;101027.59;;;8.22;72.54
74552;BME280;63025;55.472;38.432;2023-05-15T02:47:22;101028.97;;;8.34;71.58
74552;BME280;63025;55.472;38.432;2023-05-15T02:49:48;101026.75;;;8.45;71.36
74552;BME280;63025;55.472;38.432;2023-05-15T02:52:14;101029.09;;;8.57;71.55
74552;BME280;63025;55.472;38.432;2023-05-15T02:54:40;101018.03;;;8.60;70.79
74552;BME280;63025;55.472;38.432;2023-05-15T02:57:06;101025.16;;;8.75;70.87
74552;BME280;63025;55.472;38.432;2023-05-15T02:59:36;101028.63;;;8.92;70.56
74552;BME280;63025;55.472;38.432;2023-05-15T03:02:02;101034.06;;;9.07;70.29
74552;BME280;63025;55.472;38.432;2023-05-15T03:04:28;101039.69;;;9.20;69.77
74552;BME280;63025;55.472;38.432;2023-05-15T03:06:54;101036.28;;;9.34;69.50
74552;BME280;63025;55.472;38.432;2023-05-15T03:09:20;101038.19;;;9.48;68.43
74552;BME280;63025;55.472;38.432;2023-05-15T03:11:45;101028.72;;;9.61;68.08
74552;BME280;63025;55.472;38.432;2023-05-15T03:14:11;101042.38;;;9.74;68.09
74552;BME280;63025;55.472;38.432;2023-05-15T03:16:37;101043.63;;;9.86;67.08
74552;BME280;63025;55.472;38.432;2023-05-15T03:19:03;101050.94;;;9.92;67.25
74552;BME280;63025;55.472;38.432;2023-05-15T03:21:29;101048.69;;;10.04;66.72
74552;BME280;63025;55.472;38.432;2023-05-15T03:23:56;101047.22;;;10.16;66.67
74552;BME280;63025;55.472;38.432;2023-05-15T03:26:22;101055.50;;;10.29;65.93
74552;BME280;63025;55.472;38.432;2023-05-15T03:28:47;101049.34;;;10.43;65.60
74552;BME280;63025;55.472;38.432;2023-05-15T03:31:13;101054.72;;;10.58;65.02
74552;BME280;63025;55.472;38.432;2023-05-15T03:33:39;101056.75;;;10.71;64.41
74552;BME280;63025;55.472;38.432;2023-05-15T03:36:05;101052.22;;;10.86;64.00
74552;BME280;63025;55.472;38.432;2023-05-15T03:38:32;101057.50;;;10.94;63.51
74552;BME280;63025;55.472;38.432;2023-05-15T03:40:59;101051.44;;;11.07;63.23
74552;BME280;63025;55.472;38.432;2023-05-15T03:43:25;101055.34;;;11.19;62.86
74552;BME280;63025;55.472;38.432;2023-05-15T03:45:51;101052.34;;;11.28;62.43
74552;BME280;63025;55.472;38.432;2023-05-15T03:48:17;101053.88;;;11.37;61.94
74552;BME280;63025;55.472;38.432;2023-05-15T03:50:43;101059.44;;;11.51;61.70
74552;BME280;63025;55.472;38.432;2023-05-15T03:53:09;101057.69;;;11.64;61.59
74552;BME280;63025;55.472;38.432;2023-05-15T03:55:35;101061.31;;;11.71;61.19
74552;BME280;63025;55.472;38.432;2023-05-15T03:58:01;101061.25;;;11.86;61.04
74552;BME280;63025;55.472;38.432;2023-05-15T04:00:27;101058.44;;;11.94;60.36
74552;BME280;63025;55.472;38.432;2023-05-15T04:02:53;101059.38;;;12.08;60.09
74552;BME280;63025;55.472;38.432;2023-05-15T04:05:18;101057.66;;;12.22;59.97
74552;BME280;63025;55.472;38.432;2023-05-15T04:07:46;101060.00;;;12.31;59.45
74552;BME280;63025;55.472;38.432;2023-05-15T04:10:12;101058.63;;;12.42;59.26
74552;BME280;63025;55.472;38.432;2023-05-15T04:12:37;101056.22;;;12.54;58.91
74552;BME280;63025;55.472;38.432;2023-05-15T04:15:20;101067.50;;;12.64;58.54
74552;BME280;63025;55.472;38.432;2023-05-15T04:17:48;101063.59;;;12.73;58.27
74552;BME280;63025;55.472;38.432;2023-05-15T04:20:18;101056.19;;;12.81;57.71
74552;BME280;63025;55.472;38.432;2023-05-15T04:22:44;101063.91;;;12.91;57.42
74552;BME280;63025;55.472;38.432;2023-05-15T04:25:12;101062.94;;;13.05;57.29
74552;BME280;63025;55.472;38.432;2023-05-15T04:27:40;101065.72;;;13.18;57.13
74552;BME280;63025;55.472;38.432;2023-05-15T04:30:06;101069.09;;;13.34;57.08
74552;BME280;63025;55.472;38.432;2023-05-15T04:32:34;101067.50;;;13.46;56.72
74552;BME280;63025;55.472;38.432;2023-05-15T04:35:03;101059.63;;;13.57;56.26
74552;BME280;63025;55.472;38.432;2023-05-15T04:37:38;101064.44;;;13.69;56.18
74552;BME280;63025;55.472;38.432;2023-05-15T04:40:05;101066.94;;;13.77;55.47
74552;BME280;63025;55.472;38.432;2023-05-15T04:42:33;101063.63;;;13.88;55.38
74552;BME280;63025;55.472;38.432;2023-05-15T04:45:00;101060.13;;;14.01;55.22
74552;BME280;63025;55.472;38.432;2023-05-15T04:47:32;101060.31;;;14.12;54.88
74552;BME280;63025;55.472;38.432;2023-05-15T04:49:58;101066.13;;;14.22;54.36
74552;BME280;63025;55.472;38.432;2023-05-15T04:52:24;101074.06;;;14.30;54.08
74552;BME280;63025;55.472;38.432;2023-05-15T04:54:50;101065.75;;;14.32;53.51
74552;BME280;63025;55.472;38.432;2023-05-15T04:57:17;101069.47;;;14.38;53.46
74552;BME280;63025;55.472;38.432;2023-05-15T04:59:43;101067.84;;;14.50;53.26
74552;BME280;63025;55.472;38.432;2023-05-15T05:02:09;101055.53;;;14.60;52.54
74552;BME280;63025;55.472;38.432;2023-05-15T05:04:35;101056.97;;;14.69;52.28
74552;BME280;63025;55.472;38.432;2023-05-15T05:07:01;101063.41;;;14.82;52.56
74552;BME280;63025;55.472;38.432;2023-05-15T05:09:30;101059.00;;;14.94;52.29
74552;BME280;63025;55.472;38.432;2023-05-15T05:11:59;101056.03;;;15.09;51.90
74552;BME280;63025;55.472;38.432;2023-05-15T05:14:26;101057.44;;;15.18;51.38
74552;BME280;63025;55.472;38.432;2023-05-15T05:16:52;101062.22;;;15.22;51.21
74552;BME280;63025;55.472;38.432;2023-05-15T05:19:18;101068.00;;;15.32;51.09
74552;BME280;63025;55.472;38.432;2023-05-15T05:21:44;101062.75;;;15.44;51.19
74552;BME280;63025;55.472;38.432;2023-05-15T05:24:10;101061.06;;;15.56;51.26
74552;BME280;63025;55.472;38.432;2023-05-15T05:26:36;101060.56;;;15.66;50.54
74552;BME280;63025;55.472;38.432;2023-05-15T05:29:02;101057.59;;;15.74;50.27
74552;BME280;63025;55.472;38.432;2023-05-15T05:31:28;101052.97;;;15.81;49.76
74552;BME280;63025;55.472;38.432;2023-05-15T05:33:54;101057.06;;;15.90;49.75
74552;BME280;63025;55.472;38.432;2023-05-15T05:36:20;101057.03;;;15.97;49.79
74552;BME280;63025;55.472;38.432;2023-05-15T05:38:46;101063.41;;;16.09;49.52
74552;BME280;63025;55.472;38.432;2023-05-15T05:41:11;101054.78;;;16.19;49.15
74552;BME280;63025;55.472;38.432;2023-05-15T05:43:37;101055.09;;;16.29;48.65
74552;BME280;63025;55.472;38.432;2023-05-15T05:46:03;101053.56;;;16.39;48.49
74552;BME280;63025;55.472;38.432;2023-05-15T05:48:29;101044.44;;;16.52;48.49
74552;BME280;63025;55.472;38.432;2023-05-15T05:50:55;101037.06;;;16.59;48.39
74552;BME280;63025;55.472;38.432;2023-05-15T05:53:21;101049.94;;;16.70;47.93
74552;BME280;63025;55.472;38.432;2023-05-15T05:55:47;101038.59;;;16.73;47.53
74552;BME280;63025;55.472;38.432;2023-05-15T05:58:13;101043.50;;;16.83;47.09
74552;BME280;63025;55.472;38.432;2023-05-15T06:00:39;101042.22;;;16.85;46.90
74552;BME280;63025;55.472;38.432;2023-05-15T06:03:05;101037.72;;;16.98;46.77
74552;BME280;63025;55.472;38.432;2023-05-15T06:05:31;101040.63;;;17.14;46.18
74552;BME280;63025;55.472;38.432;2023-05-15T06:07:57;101037.84;;;17.21;46.30
74552;BME280;63025;55.472;38.432;2023-05-15T06:10:24;101034.34;;;17.32;46.73
74552;BME280;63025;55.472;38.432;2023-05-15T06:12:50;101038.41;;;17.41;45.95
74552;BME280;63025;55.472;38.432;2023-05-15T06:15:15;101038.56;;;17.28;45.50
74552;BME280;63025;55.472;38.432;2023-05-15T06:17:41;101037.63;;;17.04;45.06
74552;BME280;63025;55.472;38.432;2023-05-15T06:20:08;101035.75;;;16.86;43.92
74552;BME280;63025;55.472;38.432;2023-05-15T06:22:35;101030.38;;;17.16;44.71
74552;BME280;63025;55.472;38.432;2023-05-15T06:25:04;101031.03;;;17.30;44.54
74552;BME280;63025;55.472;38.432;2023-05-15T06:27:34;101028.75;;;17.27;44.48
74552;BME280;63025;55.472;38.432;2023-05-15T06:30:01;101024.06;;;17.34;44.20
74552;BME280;63025;55.472;38.432;2023-05-15T06:32:33;101025.94;;;17.52;43.03
74552;BME280;63025;55.472;38.432;2023-05-15T06:34:59;101018.03;;;17.92;42.83
74552;BME280;63025;55.472;38.432;2023-05-15T06:37:25;101030.91;;;17.85;40.88
74552;BME280;63025;55.472;38.432;2023-05-15T06:39:50;101033.47;;;17.80;41.07
74552;BME280;63025;55.472;38.432;2023-05-15T06:42:16;101031.28;;;18.00;41.28
74552;BME280;63025;55.472;38.432;2023-05-15T06:44:44;101028.94;;;18.15;40.89
74552;BME280;63025;55.472;38.432;2023-05-15T06:47:12;101030.00;;;18.03;39.75
74552;BME280;63025;55.472;38.432;2023-05-15T06:49:37;101030.91;;;17.85;39.61
74552;BME280;63025;55.472;38.432;2023-05-15T06:52:04;101029.75;;;18.04;39.50
74552;BME280;63025;55.472;38.432;2023-05-15T06:54:29;101028.47;;;18.18;39.73
74552;BME280;63025;55.472;38.432;2023-05-15T06:56:55;101033.91;;;18.42;39.66
74552;BME280;63025;55.472;38.432;2023-05-15T06:59:21;101029.31;;;18.54;39.11
74552;BME280;63025;55.472;38.432;2023-05-15T07:01:47;101032.75;;;18.61;39.55
74552;BME280;63025;55.472;38.432;2023-05-15T07:04:12;101028.59;;;18.58;39.47
74552;BME280;63025;55.472;38.432;2023-05-15T07:06:38;101026.59;;;18.77;39.36
74552;BME280;63025;55.472;38.432;2023-05-15T07:09:04;101029.09;;;18.79;39.67
74552;BME280;63025;55.472;38.432;2023-05-15T07:11:30;101029.41;;;18.82;39.36
74552;BME280;63025;55.472;38.432;2023-05-15T07:13:58;101026.56;;;18.89;39.38
74552;BME280;63025;55.472;38.432;2023-05-15T07:16:23;101017.75;;;19.10;38.94
74552;BME280;63025;55.472;38.432;2023-05-15T07:18:49;101024.69;;;19.29;37.96
74552;BME280;63025;55.472;38.432;2023-05-15T07:21:15;101030.81;;;19.36;38.03
74552;BME280;63025;55.472;38.432;2023-05-15T07:23:40;101029.56;;;19.16;37.73
74552;BME280;63025;55.472;38.432;2023-05-15T07:26:06;101030.38;;;19.28;37.87
74552;BME280;63025;55.472;38.432;2023-05-15T07:28:32;101028.31;;;19.35;37.99
74552;BME280;63025;55.472;38.432;2023-05-15T07:30:58;101019.53;;;19.33;37.68
74552;BME280;63025;55.472;38.432;2023-05-15T07:33:23;101026.66;;;19.34;37.85
74552;BME280;63025;55.472;38.432;2023-05-15T07:35:50;101025.50;;;19.30;38.01
74552;BME280;63025;55.472;38.432;2023-05-15T07:38:16;101019.00;;;19.31;38.16
74552;BME280;63025;55.472;38.432;2023-05-15T07:40:42;101014.00;;;19.28;38.30
74552;BME280;63025;55.472;38.432;2023-05-15T07:43:08;101007.75;;;19.56;37.50
74552;BME280;63025;55.472;38.432;2023-05-15T07:45:34;101010.00;;;19.47;37.07
74552;BME280;63025;55.472;38.432;2023-05-15T07:48:12;101010.69;;;19.26;37.30
74552;BME280;63025;55.472;38.432;2023-05-15T07:50:38;101008.63;;;19.04;37.56
74552;BME280;63025;55.472;38.432;2023-05-15T07:53:03;101012.34;;;18.98;38.15
74552;BME280;63025;55.472;38.432;2023-05-15T07:55:29;101008.94;;;19.20;38.29
74552;BME280;63025;55.472;38.432;2023-05-15T07:57:55;101012.78;;;19.64;38.49
74552;BME280;63025;55.472;38.432;2023-05-15T08:00:21;101007.28;;;19.75;37.64
74552;BME280;63025;55.472;38.432;2023-05-15T08:02:46;101003.41;;;19.71;37.14
74552;BME280;63025;55.472;38.432;2023-05-15T08:05:13;101008.75;;;19.66;36.82
74552;BME280;63025;55.472;38.432;2023-05-15T08:07:38;101004.56;;;19.47;36.15
74552;BME280;63025;55.472;38.432;2023-05-15T08:10:05;101005.38;;;19.76;36.67
74552;BME280;63025;55.472;38.432;2023-05-15T08:12:32;100999.34;;;19.74;36.41
74552;BME280;63025;55.472;38.432;2023-05-15T08:14:58;100996.53;;;19.86;35.36
74552;BME280;63025;55.472;38.432;2023-05-15T08:17:24;100994.28;;;20.16;35.15
74552;BME280;63025;55.472;38.432;2023-05-15T08:19:50;100996.69;;;20.46;34.52
74552;BME280;63025;55.472;38.432;2023-05-15T08:22:16;100987.16;;;20.65;33.36
74552;BME280;63025;55.472;38.432;2023-05-15T08:24:42;100985.94;;;20.06;33.63
74552;BME280;63025;55.472;38.432;2023-05-15T08:27:08;100985.47;;;20.09;33.82
74552;BME280;63025;55.472;38.432;2023-05-15T08:29:35;100976.19;;;20.87;33.40
74552;BME280;63025;55.472;38.432;2023-05-15T08:32:00;100972.47;;;21.69;34.17
74552;BME280;63025;55.472;38.432;2023-05-15T08:34:27;100976.47;;;22.20;33.66
74552;BME280;63025;55.472;38.432;2023-05-15T08:36:53;100977.81;;;21.85;33.26
74552;BME280;63025;55.472;38.432;2023-05-15T08:39:18;100972.72;;;22.36;33.20
74552;BME280;63025;55.472;38.432;2023-05-15T08:42:24;100970.81;;;22.84;32.03
74552;BME280;63025;55.472;38.432;2023-05-15T08:45:17;100972.31;;;22.59;30.83
74552;BME280;63025;55.472;38.432;2023-05-15T08:47:44;100973.28;;;22.38;31.73
74552;BME280;63025;55.472;38.432;2023-05-15T08:50:12;100979.84;;;22.84;31.80
74552;BME280;63025;55.472;38.432;2023-05-15T08:52:45;100971.78;;;23.35;30.94
74552;BME280;63025;55.472;38.432;2023-05-15T08:55:15;100969.38;;;23.59;30.10
74552;BME280;63025;55.472;38.432;2023-05-15T08:57:42;100962.03;;;24.95;29.01
74552;BME280;63025;55.472;38.432;2023-05-15T09:00:10;100968.91;;;26.14;26.82
74552;BME280;63025;55.472;38.432;2023-05-15T09:02:40;100960.16;;;27.08;24.80
74552;BME280;63025;55.472;38.432;2023-05-15T09:05:08;100953.63;;;27.60;25.11
74552;BME280;63025;55.472;38.432;2023-05-15T09:07:39;100943.97;;;27.20;25.33
74552;BME280;63025;55.472;38.432;2023-05-15T09:10:08;100950.78;;;26.08;25.36
74552;BME280;63025;55.472;38.432;2023-05-15T09:12:58;100947.72;;;24.98;26.32
74552;BME280;63025;55.472;38.432;2023-05-15T09:15:26;100940.25;;;24.24;27.17
74552;BME280;63025;55.472;38.432;2023-05-15T09:17:53;100946.84;;;24.33;27.44
74552;BME280;63025;55.472;38.432;2023-05-15T09:20:30;100938.31;;;24.34;27.28
74552;BME280;63025;55.472;38.432;2023-05-15T09:22:57;100940.16;;;26.49;26.35
74552;BME280;63025;55.472;38.432;2023-05-15T09:25:42;100934.09;;;28.02;23.66
74552;BME280;63025;55.472;38.432;2023-05-15T09:28:22;100928.09;;;29.32;22.73
74552;BME280;63025;55.472;38.432;2023-05-15T09:30:48;100926.50;;;30.69;22.37
74552;BME280;63025;55.472;38.432;2023-05-15T09:33:15;100941.81;;;31.66;21.02
74552;BME280;63025;55.472;38.432;2023-05-15T09:35:41;100930.44;;;32.05;20.09
74552;BME280;63025;55.472;38.432;2023-05-15T09:38:09;100914.22;;;32.54;19.26
74552;BME280;63025;55.472;38.432;2023-05-15T09:40:37;100917.47;;;33.36;18.01
74552;BME280;63025;55.472;38.432;2023-05-15T09:43:03;100916.94;;;32.71;17.33
74552;BME280;63025;55.472;38.432;2023-05-15T09:45:29;100919.72;;;31.69;18.07
74552;BME280;63025;55.472;38.432;2023-05-15T09:48:03;100914.97;;;31.87;17.57
74552;BME280;63025;55.472;38.432;2023-05-15T09:50:34;100903.31;;;32.78;17.58
74552;BME280;63025;55.472;38.432;2023-05-15T09:53:01;100904.19;;;32.70;17.27
74552;BME280;63025;55.472;38.432;2023-05-15T09:55:30;100908.88;;;34.07;16.75
74552;BME280;63025;55.472;38.432;2023-05-15T09:58:08;100902.00;;;35.14;16.69
74552;BME280;63025;55.472;38.432;2023-05-15T10:00:37;100902.53;;;35.59;16.05
74552;BME280;63025;55.472;38.432;2023-05-15T10:03:04;100902.09;;;36.17;15.38
74552;BME280;63025;55.472;38.432;2023-05-15T10:05:31;100893.09;;;36.23;14.34
74552;BME280;63025;55.472;38.432;2023-05-15T10:07:58;100901.47;;;36.39;14.04
74552;BME280;63025;55.472;38.432;2023-05-15T10:10:25;100888.13;;;36.83;14.59
74552;BME280;63025;55.472;38.432;2023-05-15T10:12:52;100894.03;;;36.97;14.90
74552;BME280;63025;55.472;38.432;2023-05-15T10:15:19;100884.72;;;37.47;14.80
74552;BME280;63025;55.472;38.432;2023-05-15T10:17:51;100878.72;;;37.68;13.53
74552;BME280;63025;55.472;38.432;2023-05-15T10:20:21;100877.41;;;37.24;13.86
74552;BME280;63025;55.472;38.432;2023-05-15T10:22:50;100875.75;;;37.03;14.15
74552;BME280;63025;55.472;38.432;2023-05-15T10:28:39;100873.88;;;36.57;13.81
74552;BME280;63025;55.472;38.432;2023-05-15T10:31:06;100867.53;;;34.45;14.56
74552;BME280;63025;55.472;38.432;2023-05-15T10:33:32;100859.47;;;34.80;14.64
74552;BME280;63025;55.472;38.432;2023-05-15T10:36:00;100854.50;;;36.17;14.47
74552;BME280;63025;55.472;38.432;2023-05-15T10:38:26;100870.31;;;36.25;14.95
74552;BME280;63025;55.472;38.432;2023-05-15T10:40:56;100867.66;;;35.41;14.72
74552;BME280;63025;55.472;38.432;2023-05-15T10:43:23;100861.13;;;35.65;14.27
74552;BME280;63025;55.472;38.432;2023-05-15T10:45:51;100869.03;;;36.38;13.80
74552;BME280;63025;55.472;38.432;2023-05-15T10:48:17;100864.63;;;35.90;13.45
74552;BME280;63025;55.472;38.432;2023-05-15T10:50:44;100859.69;;;34.87;13.84
74552;BME280;63025;55.472;38.432;2023-05-15T10:53:12;100865.06;;;33.62;15.16
74552;BME280;63025;55.472;38.432;2023-05-15T10:55:38;100861.84;;;33.39;15.90
74552;BME280;63025;55.472;38.432;2023-05-15T10:58:08;100863.78;;;33.60;15.92
74552;BME280;63025;55.472;38.432;2023-05-15T11:00:41;100865.91;;;35.09;15.10
74552;BME280;63025;55.472;38.432;2023-05-15T11:03:07;100851.25;;;35.00;14.54
74552;BME280;63025;55.472;38.432;2023-05-15T11:06:10;100861.56;;;33.53;15.44
74552;BME280;63025;55.472;38.432;2023-05-15T11:08:39;100862.91;;;31.88;17.13
74552;BME280;63025;55.472;38.432;2023-05-15T11:11:06;100860.22;;;31.53;17.58
74552;BME280;63025;55.472;38.432;2023-05-15T11:14:25;100858.84;;;32.32;16.71
74552;BME280;63025;55.472;38.432;2023-05-15T11:21:56;100848.75;;;35.50;14.12
74552;BME280;63025;55.472;38.432;2023-05-15T11:24:30;100846.38;;;35.96;13.85
74552;BME280;63025;55.472;38.432;2023-05-15T11:27:00;100843.25;;;34.98;13.87
74552;BME280;63025;55.472;38.432;2023-05-15T11:29:26;100835.06;;;34.29;14.35
74552;BME280;63025;55.472;38.432;2023-05-15T11:31:52;100835.59;;;33.73;14.70
74552;BME280;63025;55.472;38.432;2023-05-15T11:34:40;100837.81;;;35.45;13.75
74552;BME280;63025;55.472;38.432;2023-05-15T11:37:16;100841.06;;;36.57;13.76
74552;BME280;63025;55.472;38.432;2023-05-15T11:39:43;100835.66;;;35.39;13.74
74552;BME280;63025;55.472;38.432;2023-05-15T11:42:10;100838.50;;;36.17;14.18
74552;BME280;63025;55.472;38.432;2023-05-15T11:44:36;100834.09;;;35.41;13.99
74552;BME280;63025;55.472;38.432;2023-05-15T11:47:02;100833.09;;;34.05;14.88
74552;BME280;63025;55.472;38.432;2023-05-15T11:49:29;100823.78;;;32.60;15.47
74552;BME280;63025;55.472;38.432;2023-05-15T11:51:55;100822.78;;;32.06;16.25
74552;BME280;63025;55.472;38.432;2023-05-15T11:54:22;100819.72;;;31.18;16.86
74552;BME280;63025;55.472;38.432;2023-05-15T11:56:48;100815.38;;;30.34;17.97
74552;BME280;63025;55.472;38.432;2023-05-15T11:59:14;100819.91;;;29.51;18.58
74552;BME280;63025;55.472;38.432;2023-05-15T12:01:41;100809.25;;;30.06;18.04
74552;BME280;63025;55.472;38.432;2023-05-15T12:04:15;100804.56;;;29.76;18.51
74552;BME280;63025;55.472;38.432;2023-05-15T12:06:42;100803.25;;;29.29;18.53
74552;BME280;63025;55.472;38.432;2023-05-15T12:09:16;100792.53;;;28.69;18.67
74552;BME280;63025;55.472;38.432;2023-05-15T12:11:49;100795.19;;;29.63;18.38
74552;BME280;63025;55.472;38.432;2023-05-15T12:14:15;100798.31;;;30.84;17.84
74552;BME280;63025;55.472;38.432;2023-05-15T12:16:41;100790.09;;;31.94;16.63
74552;BME280;63025;55.472;38.432;2023-05-15T12:19:07;100777.25;;;33.02;17.02
74552;BME280;63025;55.472;38.432;2023-05-15T12:21:32;100775.91;;;33.41;15.65
74552;BME280;63025;55.472;38.432;2023-05-15T12:23:58;100777.72;;;34.07;15.50
74552;BME280;63025;55.472;38.432;2023-05-15T12:26:25;100777.03;;;34.86;15.03
74552;BME280;63025;55.472;38.432;2023-05-15T12:28:52;100783.16;;;35.48;15.29
74552;BME280;63025;55.472;38.432;2023-05-15T12:31:19;100781.25;;;36.15;14.48
74552;BME280;63025;55.472;38.432;2023-05-15T12:33:45;100783.78;;;36.20;14.29
74552;BME280;63025;55.472;38.432;2023-05-15T12:36:11;100778.97;;;36.36;13.90
74552;BME280;63025;55.472;38.432;2023-05-15T12:38:38;100786.56;;;36.70;13.54
74552;BME280;63025;55.472;38.432;2023-05-15T12:41:05;100788.13;;;35.54;14.08
74552;BME280;63025;55.472;38.432;2023-05-15T12:43:30;100773.06;;;34.11;15.22
74552;BME280;63025;55.472;38.432;2023-05-15T12:45:58;100774.69;;;32.35;15.88
74552;BME280;63025;55.472;38.432;2023-05-15T12:48:30;100779.88;;;31.22;17.02
74552;BME280;63025;55.472;38.432;2023-05-15T12:51:03;100771.53;;;30.88;17.07
74552;BME280;63025;55.472;38.432;2023-05-15T12:53:30;100776.75;;;30.55;17.91
74552;BME280;63025;55.472;38.432;2023-05-15T12:55:59;100770.06;;;31.25;17.58
74552;BME280;63025;55.472;38.432;2023-05-15T12:58:25;100756.38;;;32.75;16.31
74552;BME280;63025;55.472;38.432;2023-05-15T13:00:51;100767.16;;;34.00;16.14
74552;BME280;63025;55.472;38.432;2023-05-15T13:03:18;100763.16;;;34.90;14.99
74552;BME280;63025;55.472;38.432;2023-05-15T13:05:45;100761.69;;;35.36;14.43
74552;BME280;63025;55.472;38.432;2023-05-15T13:08:16;100762.94;;;35.39;14.20
74552;BME280;63025;55.472;38.432;2023-05-15T13:10:42;100752.50;;;34.80;13.97